Portada
METAR-TAF:

METAR-TAF

Aeropuertos :

Litchfield Municipal Airport

Litchfield, Illinois, Estados Unidos

latitud: 39-09-44N, longitud: 089-40-28W, altitud: 210 m

Observación

El informe se hizo hace 23 minutos, a las 07:35 UTC
Viento 5 kt del norte
Temperatura 14°C
Humedad 82%
Presión 1024 hPa
Visibilidad: 16.1 km
Cielo despejado

METAR: K3LF 310735Z AUTO 01005KT 10SM CLR 14/11 A3023 RMK AO2 T01350106

Hora: 02:58 (07:58 UTC)


TAF: falta

Observaciones y pronósticos meteorológicos de más de 4000 aeropuertos (mensajes METAR y TAF).

Los puntos amarillos y rojos representan las estaciones disponibles.

Ponga el ratón en el punto deseado para ver el nombre de la estación.

Haga clic para ver las observaciones y los pronósticos meteorológicos.

Para cambiar el mapa : haga clic en los botones verdes con una cruz de color negro para hacer un zoom, en el botón verde con un guión para alejar o en las flechas verdes para mapas adyacentes.


METAR-TAF: